Time;durP1;ratioP1;P1;durP2;ratioP2;P2;SDS_P1;SDS_P2;PMS_P1;PMS_P2;Temp;Humidity;BMP_temperature;BMP_pressure;BME280_temperature;BME280_humidity;BME280_pressure;Samples;Min_cycle;Max_cycle;Signal;HPM_P1;HPM_P2
2021/12/19 00:04:55;;;;;;;;;;;20.10;50.10;;;;;;4973460;28;19941;-62
2021/12/19 00:10:05;;;;;;;;;;;20.10;50.30;;;;;;4946723;28;19932;-62
2021/12/19 00:12:31;;;;;;;;;;;20.10;50.30;;;;;;4960396;28;20021;-62
2021/12/19 00:14:56;;;;;;;;;;;20.00;50.40;;;;;;4946334;28;19922;-62
2021/12/19 00:17:23;;;;;;;;;;;20.00;50.50;;;;;;4945682;28;21287;-62
2021/12/19 00:19:49;;;;;;;;;;;19.90;50.50;;;;;;4945298;28;20272;-62
2021/12/19 00:22:14;;;;;;;;;;;19.90;50.60;;;;;;4975703;28;20972;-62
2021/12/19 00:24:40;;;;;;;;;;;19.90;50.60;;;;;;4942850;28;20451;-62
2021/12/19 00:27:05;;;;;;;;;;;19.90;50.50;;;;;;4978094;28;19918;-63
2021/12/19 00:29:30;;;;;;;;;;;19.90;50.60;;;;;;4947241;28;20001;-63
2021/12/19 00:31:56;;;;;;;;;;;19.80;50.50;;;;;;4943811;28;19958;-62
2021/12/19 00:34:21;;;;;;;;;;;19.80;50.50;;;;;;4944181;28;19918;-62
2021/12/19 00:36:47;;;;;;;;;;;19.80;50.50;;;;;;4944594;28;20084;-62
2021/12/19 00:39:12;;;;;;;;;;;19.80;50.60;;;;;;4945105;28;19919;-62
2021/12/19 00:41:38;;;;;;;;;;;19.80;50.60;;;;;;4943736;28;20336;-62
2021/12/19 00:44:11;;;;;;;;;;;19.80;50.60;;;;;;4977486;28;20327;-62
2021/12/19 00:46:44;;;;;;;;;;;19.80;50.60;;;;;;4945932;28;20361;-62
2021/12/19 00:49:09;;;;;;;;;;;19.70;50.60;;;;;;4974865;28;19918;-62
2021/12/19 00:51:35;;;;;;;;;;;19.70;50.70;;;;;;4975708;28;19970;-63
2021/12/19 00:54:00;;;;;;;;;;;19.70;50.70;;;;;;4944177;28;20017;-62
2021/12/19 00:56:26;;;;;;;;;;;19.70;50.70;;;;;;4947306;28;20331;-62
2021/12/19 00:58:51;;;;;;;;;;;19.70;50.60;;;;;;4946226;28;19937;-62
2021/12/19 01:01:17;;;;;;;;;;;19.70;50.60;;;;;;4945548;28;19946;-62
2021/12/19 01:03:44;;;;;;;;;;;19.70;50.60;;;;;;4944695;28;20017;-62
2021/12/19 01:06:09;;;;;;;;;;;19.70;50.60;;;;;;4944879;28;20454;-62
2021/12/19 01:08:35;;;;;;;;;;;19.70;50.70;;;;;;4945252;28;19966;-62
2021/12/19 01:11:00;;;;;;;;;;;19.60;50.60;;;;;;4978857;28;19921;-62
2021/12/19 01:13:26;;;;;;;;;;;19.60;50.60;;;;;;4975139;28;20054;-62
2021/12/19 01:15:53;;;;;;;;;;;19.60;50.60;;;;;;4942581;28;19921;-62
2021/12/19 01:18:18;;;;;;;;;;;19.60;50.60;;;;;;4962277;28;19915;-62
2021/12/19 01:20:44;;;;;;;;;;;19.60;50.50;;;;;;4943619;28;20668;-62
2021/12/19 01:23:09;;;;;;;;;;;19.50;50.50;;;;;;4976566;28;19993;-62
2021/12/19 01:25:35;;;;;;;;;;;19.50;50.60;;;;;;4975556;28;19934;-62
2021/12/19 01:28:00;;;;;;;;;;;19.50;50.70;;;;;;4975732;28;19915;-62
2021/12/19 01:30:26;;;;;;;;;;;19.50;50.70;;;;;;4943750;28;19914;-62
2021/12/19 01:32:51;;;;;;;;;;;19.60;50.70;;;;;;4944945;28;19915;-63
2021/12/19 01:35:17;;;;;;;;;;;19.50;50.60;;;;;;4943300;28;19918;-62
2021/12/19 01:37:43;;;;;;;;;;;19.50;50.60;;;;;;4974964;28;19969;-62
2021/12/19 01:40:09;;;;;;;;;;;19.60;50.60;;;;;;4944310;28;20596;-62
2021/12/19 01:42:36;;;;;;;;;;;19.50;50.60;;;;;;4974650;28;19914;-62
2021/12/19 01:45:01;;;;;;;;;;;19.50;50.50;;;;;;4976545;28;20303;-62
2021/12/19 01:47:27;;;;;;;;;;;19.50;50.50;;;;;;4944078;28;19919;-62
2021/12/19 01:49:52;;;;;;;;;;;19.40;50.50;;;;;;4944302;28;19915;-62
2021/12/19 01:52:18;;;;;;;;;;;19.40;50.50;;;;;;4943664;28;19922;-62
2021/12/19 01:54:44;;;;;;;;;;;19.50;50.60;;;;;;4972815;28;20260;-62
2021/12/19 01:57:09;;;;;;;;;;;19.50;50.60;;;;;;4944439;28;19973;-62
2021/12/19 01:59:35;;;;;;;;;;;19.40;50.40;;;;;;4976435;28;19922;-62
2021/12/19 02:02:00;;;;;;;;;;;19.50;50.40;;;;;;4976419;28;19970;-63
2021/12/19 02:04:30;;;;;;;;;;;19.50;50.40;;;;;;4944732;28;19970;-62
2021/12/19 02:06:55;;;;;;;;;;;19.50;50.50;;;;;;4942998;28;19923;-62
2021/12/19 02:09:21;;;;;;;;;;;19.40;50.40;;;;;;4974424;28;19921;-62
2021/12/19 02:11:46;;;;;;;;;;;19.40;50.40;;;;;;4943973;28;19945;-62
2021/12/19 02:14:12;;;;;;;;;;;19.40;50.40;;;;;;4974574;28;19958;-63
2021/12/19 02:16:37;;;;;;;;;;;19.40;50.40;;;;;;4944992;28;19926;-62
2021/12/19 02:19:03;;;;;;;;;;;19.40;50.30;;;;;;4944061;28;19953;-62
2021/12/19 02:21:28;;;;;;;;;;;19.50;50.20;;;;;;4974755;28;19922;-62
2021/12/19 02:23:57;;;;;;;;;;;19.60;50.10;;;;;;4941677;28;20002;-62
2021/12/19 02:26:23;;;;;;;;;;;19.70;50.10;;;;;;4957986;28;20379;-62
2021/12/19 02:28:48;;;;;;;;;;;19.70;49.90;;;;;;4973139;28;19919;-62
2021/12/19 02:31:14;;;;;;;;;;;19.80;49.90;;;;;;4975404;28;20378;-62
2021/12/19 02:33:43;;;;;;;;;;;20.00;49.80;;;;;;4943559;28;20447;-62
2021/12/19 02:49:24;;;;;;;;;;;21.00;47.80;;;;;;4970944;28;19970;-62
2021/12/19 02:51:51;;;;;;;;;;;21.10;47.70;;;;;;4946689;28;19914;-62
2021/12/19 02:54:17;;;;;;;;;;;21.10;47.50;;;;;;4977817;28;19922;-62
2021/12/19 02:56:42;;;;;;;;;;;21.20;47.40;;;;;;4947100;28;19914;-62
2021/12/19 02:59:07;;;;;;;;;;;21.20;47.30;;;;;;4978354;28;19977;-62
2021/12/19 03:01:33;;;;;;;;;;;21.30;47.20;;;;;;4946836;28;19925;-63
2021/12/19 03:03:58;;;;;;;;;;;21.30;47.10;;;;;;4942953;28;19933;-62
2021/12/19 03:06:24;;;;;;;;;;;21.30;47.10;;;;;;4947111;28;19939;-62
2021/12/19 03:08:51;;;;;;;;;;;21.30;47.10;;;;;;4963033;28;19929;-61
2021/12/19 03:19:30;;;;;;;;;;;21.20;47.00;;;;;;4946259;28;19965;-62
2021/12/19 03:21:55;;;;;;;;;;;21.10;47.00;;;;;;4946494;28;19953;-62
2021/12/19 03:24:20;;;;;;;;;;;21.10;47.00;;;;;;4978693;28;19919;-62
2021/12/19 03:26:46;;;;;;;;;;;21.10;47.00;;;;;;4947463;28;19927;-63
2021/12/19 03:29:11;;;;;;;;;;;21.10;47.00;;;;;;4947946;28;20013;-63
2021/12/19 03:31:37;;;;;;;;;;;21.10;47.10;;;;;;4979188;28;19927;-63
2021/12/19 03:34:02;;;;;;;;;;;21.10;47.00;;;;;;4947811;28;19969;-62
2021/12/19 03:36:28;;;;;;;;;;;21.10;47.00;;;;;;4976256;28;19919;-62
2021/12/19 03:38:58;;;;;;;;;;;21.10;47.00;;;;;;4948377;28;19925;-62
2021/12/19 03:41:33;;;;;;;;;;;21.00;47.10;;;;;;4961768;28;19988;-62
2021/12/19 03:43:58;;;;;;;;;;;21.00;47.20;;;;;;4973599;28;19929;-62
2021/12/19 03:46:24;;;;;;;;;;;21.00;47.00;;;;;;4945524;28;20008;-62
2021/12/19 03:48:49;;;;;;;;;;;21.00;47.00;;;;;;4946983;28;19919;-62
2021/12/19 03:51:14;;;;;;;;;;;21.00;47.20;;;;;;4976234;28;23774;-62
2021/12/19 03:53:40;;;;;;;;;;;20.90;47.10;;;;;;4946507;28;19941;-63
2021/12/19 03:56:05;;;;;;;;;;;20.90;47.30;;;;;;4949846;28;19922;-62
2021/12/19 03:58:31;;;;;;;;;;;20.90;47.30;;;;;;4976615;28;19954;-62
2021/12/19 04:01:00;;;;;;;;;;;20.80;47.30;;;;;;4975566;28;19918;-62
2021/12/19 04:03:25;;;;;;;;;;;20.80;47.50;;;;;;4945015;28;20391;-62
2021/12/19 04:05:51;;;;;;;;;;;20.80;47.60;;;;;;4976972;28;19930;-62
2021/12/19 04:08:16;;;;;;;;;;;20.70;47.60;;;;;;4946402;28;19973;-62
2021/12/19 04:10:42;;;;;;;;;;;20.70;47.60;;;;;;4946749;28;19918;-62
2021/12/19 04:13:07;;;;;;;;;;;20.70;47.70;;;;;;4945533;28;20275;-62
2021/12/19 04:15:33;;;;;;;;;;;20.70;47.60;;;;;;4977248;28;19961;-63
2021/12/19 04:17:59;;;;;;;;;;;20.70;47.80;;;;;;4946166;28;19973;-62
2021/12/19 04:20:24;;;;;;;;;;;20.60;47.80;;;;;;4945084;28;20279;-62
2021/12/19 04:22:50;;;;;;;;;;;20.60;47.80;;;;;;4946376;28;19941;-62
2021/12/19 04:25:15;;;;;;;;;;;20.60;47.80;;;;;;4946016;28;20435;-62
2021/12/19 04:27:41;;;;;;;;;;;20.60;48.00;;;;;;4944150;28;20058;-62
2021/12/19 04:30:07;;;;;;;;;;;20.60;48.10;;;;;;4945751;28;20398;-62
2021/12/19 04:32:38;;;;;;;;;;;20.60;48.10;;;;;;4976674;28;19953;-62
2021/12/19 04:35:04;;;;;;;;;;;20.60;47.80;;;;;;4948712;28;19930;-62
2021/12/19 04:51:36;;;;;;;;;;;20.60;47.60;;;;;;4946343;28;20074;-63
2021/12/19 04:56:51;;;;;;;;;;;20.60;47.50;;;;;;4944823;28;19965;-62
2021/12/19 05:02:08;;;;;;;;;;;20.60;47.60;;;;;;4945480;28;20433;-62
2021/12/19 05:15:29;;;;;;;;;;;20.60;47.50;;;;;;4944108;28;19985;-62
2021/12/19 05:17:59;;;;;;;;;;;20.60;47.60;;;;;;4933177;29;20295;-62
2021/12/19 05:20:28;;;;;;;;;;;20.70;47.70;;;;;;4942929;28;19921;-62
2021/12/19 05:22:59;;;;;;;;;;;20.60;47.50;;;;;;4953987;28;19914;-62
2021/12/19 05:25:24;;;;;;;;;;;20.60;47.80;;;;;;4960636;28;20298;-62
2021/12/19 05:27:51;;;;;;;;;;;20.60;47.70;;;;;;4954642;29;20001;-62
2021/12/19 05:30:16;;;;;;;;;;;20.60;47.70;;;;;;4953632;29;20020;-62
2021/12/19 05:32:42;;;;;;;;;;;20.60;47.60;;;;;;4954083;29;20009;-62
2021/12/19 05:35:09;;;;;;;;;;;20.60;47.60;;;;;;4984444;28;20449;-62
2021/12/19 05:45:47;;;;;;;;;;;20.70;47.50;;;;;;4953431;29;20012;-62
2021/12/19 05:48:12;;;;;;;;;;;20.60;47.40;;;;;;4944935;28;20001;-63
2021/12/19 05:50:39;;;;;;;;;;;20.60;47.40;;;;;;4942957;28;20033;-62
2021/12/19 05:53:05;;;;;;;;;;;20.60;47.40;;;;;;4971003;28;19966;-62
2021/12/19 05:55:30;;;;;;;;;;;20.60;47.50;;;;;;4943275;28;20382;-62
2021/12/19 05:57:56;;;;;;;;;;;20.60;47.40;;;;;;4945727;28;20050;-62
2021/12/19 06:00:21;;;;;;;;;;;20.70;47.50;;;;;;4944143;28;19918;-62
2021/12/19 06:02:47;;;;;;;;;;;20.70;47.50;;;;;;4945909;28;20009;-62
2021/12/19 06:05:13;;;;;;;;;;;20.60;47.40;;;;;;4941430;28;19926;-62
2021/12/19 06:07:38;;;;;;;;;;;20.60;47.40;;;;;;4943147;28;19970;-63
2021/12/19 06:10:04;;;;;;;;;;;20.60;47.50;;;;;;4944513;28;19918;-63
2021/12/19 06:12:31;;;;;;;;;;;20.60;47.50;;;;;;4944623;28;19914;-62
2021/12/19 06:14:57;;;;;;;;;;;20.60;47.50;;;;;;4944695;28;20394;-62
2021/12/19 06:17:22;;;;;;;;;;;20.60;47.50;;;;;;4944470;28;19915;-62
2021/12/19 06:19:47;;;;;;;;;;;20.60;47.50;;;;;;4974233;28;19918;-62
2021/12/19 06:22:13;;;;;;;;;;;20.60;47.50;;;;;;4974539;28;19924;-62
2021/12/19 06:24:38;;;;;;;;;;;20.60;47.40;;;;;;4941769;28;19973;-62
2021/12/19 06:27:04;;;;;;;;;;;20.60;47.40;;;;;;4974549;28;19919;-62
2021/12/19 06:29:30;;;;;;;;;;;20.60;47.40;;;;;;4975410;28;19919;-63
2021/12/19 06:31:55;;;;;;;;;;;20.60;47.30;;;;;;4945432;28;19927;-63
2021/12/19 06:34:21;;;;;;;;;;;20.60;47.30;;;;;;4943650;28;19922;-62
2021/12/19 06:36:46;;;;;;;;;;;20.60;47.40;;;;;;4943144;28;20441;-62
2021/12/19 06:39:11;;;;;;;;;;;20.60;47.40;;;;;;4944018;28;19921;-62
2021/12/19 06:41:37;;;;;;;;;;;20.70;47.40;;;;;;4941735;28;19945;-63
2021/12/19 06:44:03;;;;;;;;;;;20.60;47.30;;;;;;4944378;28;19966;-62
2021/12/19 06:46:28;;;;;;;;;;;20.60;47.30;;;;;;4940605;28;20017;-62
2021/12/19 06:48:54;;;;;;;;;;;20.70;47.40;;;;;;4974623;28;19918;-62
2021/12/19 06:51:19;;;;;;;;;;;20.70;47.30;;;;;;4943775;28;19921;-62
2021/12/19 06:53:45;;;;;;;;;;;20.70;47.40;;;;;;4944079;28;20027;-62
2021/12/19 06:56:10;;;;;;;;;;;20.70;47.30;;;;;;4941892;28;19919;-62
2021/12/19 06:58:36;;;;;;;;;;;20.70;47.30;;;;;;4943236;28;19915;-62
2021/12/19 07:01:01;;;;;;;;;;;20.70;47.30;;;;;;4944479;28;19978;-62
2021/12/19 07:03:27;;;;;;;;;;;20.70;47.30;;;;;;4943730;28;20001;-64
2021/12/19 07:05:52;;;;;;;;;;;20.60;47.30;;;;;;4943690;28;19938;-62
2021/12/19 07:08:17;;;;;;;;;;;20.70;47.30;;;;;;4943446;28;19934;-62
2021/12/19 07:10:43;;;;;;;;;;;20.60;47.30;;;;;;4943603;28;19925;-62
2021/12/19 07:13:08;;;;;;;;;;;20.60;47.30;;;;;;4975118;28;20362;-62
2021/12/19 07:15:34;;;;;;;;;;;20.60;47.20;;;;;;4942484;28;20347;-62
2021/12/19 07:18:02;;;;;;;;;;;20.60;47.30;;;;;;4940310;28;20020;-62
2021/12/19 07:20:28;;;;;;;;;;;20.60;47.30;;;;;;4944288;28;19922;-62
2021/12/19 07:22:54;;;;;;;;;;;20.60;47.30;;;;;;4972789;28;19919;-63
2021/12/19 07:25:19;;;;;;;;;;;20.60;47.20;;;;;;4944400;29;20012;-63
2021/12/19 07:27:45;;;;;;;;;;;20.60;47.20;;;;;;4953254;29;19922;-62
2021/12/19 07:30:11;;;;;;;;;;;20.60;47.20;;;;;;4952664;29;19946;-63
2021/12/19 07:32:37;;;;;;;;;;;20.60;47.10;;;;;;4953257;28;19914;-63
2021/12/19 07:35:06;;;;;;;;;;;20.60;47.10;;;;;;4952128;28;19980;-62
2021/12/19 07:37:32;;;;;;;;;;;20.60;47.20;;;;;;4956620;29;20414;-62
2021/12/19 07:40:09;;;;;;;;;;;20.60;47.20;;;;;;4956013;28;19922;-62
2021/12/19 07:42:35;;;;;;;;;;;20.60;47.10;;;;;;4948488;28;20351;-62
2021/12/19 07:45:00;;;;;;;;;;;20.70;47.10;;;;;;4955907;29;19925;-62
2021/12/19 07:47:26;;;;;;;;;;;20.70;47.10;;;;;;4955984;29;19941;-62
2021/12/19 07:49:51;;;;;;;;;;;20.70;47.10;;;;;;4955380;29;20033;-62
2021/12/19 07:52:16;;;;;;;;;;;20.70;47.10;;;;;;4955620;29;19922;-62
2021/12/19 07:54:42;;;;;;;;;;;20.70;47.30;;;;;;4952047;28;19934;-62
2021/12/19 07:57:07;;;;;;;;;;;20.60;47.20;;;;;;4955735;29;20339;-62
2021/12/19 07:59:33;;;;;;;;;;;20.70;47.30;;;;;;4955700;29;19933;-62
2021/12/19 08:01:58;;;;;;;;;;;20.70;47.20;;;;;;4954179;28;20307;-62
2021/12/19 08:04:24;;;;;;;;;;;20.70;47.30;;;;;;4940035;29;20298;-62
2021/12/19 08:06:49;;;;;;;;;;;20.60;47.20;;;;;;4955088;29;19914;-62
2021/12/19 08:09:35;;;;;;;;;;;20.60;47.30;;;;;;4978179;28;20297;-62
2021/12/19 08:12:00;;;;;;;;;;;20.60;47.30;;;;;;4947029;28;19920;-62
2021/12/19 08:14:26;;;;;;;;;;;20.60;47.30;;;;;;4975995;28;19918;-62
2021/12/19 08:16:51;;;;;;;;;;;20.60;47.30;;;;;;4945912;28;19922;-62
2021/12/19 08:19:17;;;;;;;;;;;20.60;47.20;;;;;;4977577;28;19921;-62
2021/12/19 08:21:42;;;;;;;;;;;20.60;47.20;;;;;;4960874;28;20017;-62
2021/12/19 08:24:12;;;;;;;;;;;20.60;47.20;;;;;;4947200;28;20485;-62
2021/12/19 08:26:38;;;;;;;;;;;20.60;47.20;;;;;;4944646;28;19946;-62
2021/12/19 08:29:03;;;;;;;;;;;20.60;47.20;;;;;;4946274;28;19921;-62
2021/12/19 08:31:29;;;;;;;;;;;20.60;47.30;;;;;;4944219;28;19997;-62
2021/12/19 08:33:54;;;;;;;;;;;20.60;47.20;;;;;;4945510;28;19933;-62
2021/12/19 08:36:20;;;;;;;;;;;20.60;47.30;;;;;;4946678;28;20452;-62
2021/12/19 08:38:47;;;;;;;;;;;20.50;47.20;;;;;;4976713;28;19921;-62
2021/12/19 08:41:12;;;;;;;;;;;20.50;47.20;;;;;;4945100;28;20000;-63
2021/12/19 08:43:37;;;;;;;;;;;20.50;47.30;;;;;;4976959;28;19915;-62
2021/12/19 08:46:03;;;;;;;;;;;20.50;47.20;;;;;;4944558;28;19920;-62
2021/12/19 08:48:28;;;;;;;;;;;20.60;47.30;;;;;;4956620;28;20041;-62
2021/12/19 08:50:54;;;;;;;;;;;20.50;47.20;;;;;;4945972;28;19930;-63
2021/12/19 08:53:19;;;;;;;;;;;20.50;47.20;;;;;;4946444;28;19921;-62
2021/12/19 08:55:45;;;;;;;;;;;20.50;47.20;;;;;;4945952;28;19970;-62
2021/12/19 08:58:11;;;;;;;;;;;20.50;47.20;;;;;;4976660;28;20367;-62
2021/12/19 09:00:36;;;;;;;;;;;20.50;47.20;;;;;;4973118;28;19914;-62
2021/12/19 09:03:02;;;;;;;;;;;20.50;47.20;;;;;;4976233;28;19929;-63
2021/12/19 09:05:28;;;;;;;;;;;20.50;47.20;;;;;;4973616;28;19922;-62
2021/12/19 09:07:54;;;;;;;;;;;20.60;47.20;;;;;;4946169;28;19925;-62
2021/12/19 09:10:19;;;;;;;;;;;20.60;47.20;;;;;;4944597;28;19961;-62
2021/12/19 09:12:45;;;;;;;;;;;20.60;47.20;;;;;;4976557;28;20291;-62
2021/12/19 09:15:11;;;;;;;;;;;20.50;47.10;;;;;;4942731;28;19914;-62
2021/12/19 09:17:36;;;;;;;;;;;20.60;47.20;;;;;;4943392;28;19915;-62
2021/12/19 09:20:02;;;;;;;;;;;20.60;47.10;;;;;;4974960;28;19925;-62
2021/12/19 09:22:28;;;;;;;;;;;20.60;47.20;;;;;;4943343;28;22280;-62
2021/12/19 09:24:53;;;;;;;;;;;20.60;47.20;;;;;;4945656;28;19929;-62
2021/12/19 09:27:19;;;;;;;;;;;20.60;47.20;;;;;;4944569;28;19934;-62
2021/12/19 09:29:44;;;;;;;;;;;20.60;47.10;;;;;;4945680;28;20654;-62
2021/12/19 09:32:09;;;;;;;;;;;20.50;47.10;;;;;;4945393;28;20337;-62
2021/12/19 09:34:35;;;;;;;;;;;20.50;47.00;;;;;;4943548;28;19922;-62
2021/12/19 09:37:00;;;;;;;;;;;20.50;47.10;;;;;;4943986;28;19969;-62
2021/12/19 09:39:26;;;;;;;;;;;20.50;47.10;;;;;;4944901;28;19953;-62
2021/12/19 09:41:52;;;;;;;;;;;20.50;47.20;;;;;;4943731;28;19938;-62
2021/12/19 09:44:17;;;;;;;;;;;20.50;47.20;;;;;;4977635;28;19930;-62
2021/12/19 09:46:43;;;;;;;;;;;20.50;47.20;;;;;;4946511;28;19938;-62
2021/12/19 09:49:09;;;;;;;;;;;20.50;47.20;;;;;;4946498;28;20355;-62
2021/12/19 09:51:35;;;;;;;;;;;20.50;47.20;;;;;;4947661;28;19953;-62
2021/12/19 09:54:00;;;;;;;;;;;20.50;47.20;;;;;;4974198;28;19923;-62
2021/12/19 09:56:26;;;;;;;;;;;20.50;47.30;;;;;;4943019;28;19962;-62
2021/12/19 09:58:53;;;;;;;;;;;20.50;47.30;;;;;;4941002;28;19914;-62
2021/12/19 10:01:18;;;;;;;;;;;20.50;47.20;;;;;;4944743;28;19932;-62
2021/12/19 10:03:44;;;;;;;;;;;20.50;47.30;;;;;;4976686;28;20001;-62
2021/12/19 10:06:22;;;;;;;;;;;20.50;47.20;;;;;;4944446;28;19914;-62
2021/12/19 10:08:49;;;;;;;;;;;20.50;47.30;;;;;;4963272;28;19922;-63
2021/12/19 10:11:34;;;;;;;;;;;20.50;47.30;;;;;;4976782;28;23304;-62
2021/12/19 10:14:00;;;;;;;;;;;20.50;47.30;;;;;;4976187;28;20379;-62
2021/12/19 10:16:29;;;;;;;;;;;20.50;47.30;;;;;;4941970;28;23118;-62
2021/12/19 10:18:57;;;;;;;;;;;20.50;47.20;;;;;;4945684;28;20280;-62
2021/12/19 10:21:22;;;;;;;;;;;20.50;47.30;;;;;;4975479;28;19915;-62
2021/12/19 10:23:48;;;;;;;;;;;20.60;47.20;;;;;;4975753;28;20684;-63
2021/12/19 10:26:13;;;;;;;;;;;20.50;47.20;;;;;;4942538;28;19918;-63
2021/12/19 10:28:51;;;;;;;;;;;20.50;47.20;;;;;;4945654;28;19922;-62
2021/12/19 10:31:17;;;;;;;;;;;20.50;47.20;;;;;;4946275;28;20308;-62
2021/12/19 10:33:42;;;;;;;;;;;20.50;47.20;;;;;;4952332;28;19919;-62
2021/12/19 10:36:09;;;;;;;;;;;20.50;47.30;;;;;;4961073;28;19918;-62
2021/12/19 10:38:36;;;;;;;;;;;20.50;47.20;;;;;;4948108;28;19949;-62
2021/12/19 10:41:12;;;;;;;;;;;20.50;47.20;;;;;;4944967;28;19914;-62
2021/12/19 10:43:45;;;;;;;;;;;20.50;47.20;;;;;;4945246;28;20319;-63
2021/12/19 10:46:11;;;;;;;;;;;20.50;47.40;;;;;;4963128;28;19941;-62
2021/12/19 10:48:43;;;;;;;;;;;20.70;47.50;;;;;;4978934;28;20425;-62
2021/12/19 10:51:08;;;;;;;;;;;20.80;47.30;;;;;;4975749;28;19915;-62
2021/12/19 10:53:36;;;;;;;;;;;20.90;47.00;;;;;;4943005;28;19925;-62
2021/12/19 10:56:03;;;;;;;;;;;21.10;46.80;;;;;;4943132;28;19918;-62
2021/12/19 10:58:33;;;;;;;;;;;21.30;46.50;;;;;;4943289;28;20033;-63
2021/12/19 11:01:10;;;;;;;;;;;21.40;46.30;;;;;;4959574;28;19977;-63
2021/12/19 11:03:36;;;;;;;;;;;21.50;46.10;;;;;;4942619;28;19965;-63
2021/12/19 11:06:12;;;;;;;;;;;21.70;45.90;;;;;;4940318;28;19923;-63
2021/12/19 11:08:39;;;;;;;;;;;21.80;45.90;;;;;;4975825;28;19981;-62
2021/12/19 11:11:04;;;;;;;;;;;21.80;45.90;;;;;;4977449;28;19922;-62
2021/12/19 11:13:30;;;;;;;;;;;21.90;46.00;;;;;;4945879;28;19962;-62
2021/12/19 11:15:55;;;;;;;;;;;22.00;45.90;;;;;;4981522;28;20470;-62
2021/12/19 11:18:20;;;;;;;;;;;22.00;45.70;;;;;;4950856;28;20361;-62
2021/12/19 11:20:46;;;;;;;;;;;22.10;45.70;;;;;;4946237;28;20375;-62
2021/12/19 11:23:11;;;;;;;;;;;22.10;46.20;;;;;;4963342;28;19966;-62
2021/12/19 11:25:37;;;;;;;;;;;22.20;45.60;;;;;;4943827;28;20386;-63
2021/12/19 11:28:03;;;;;;;;;;;22.20;45.50;;;;;;4975100;28;20298;-63
2021/12/19 11:30:29;;;;;;;;;;;22.20;45.40;;;;;;4951690;28;20370;-63
2021/12/19 11:33:13;;;;;;;;;;;22.20;45.40;;;;;;4948622;28;19921;-63
2021/12/19 11:35:41;;;;;;;;;;;22.20;46.10;;;;;;4947858;28;19921;-62
2021/12/19 11:38:08;;;;;;;;;;;22.30;45.40;;;;;;4945586;28;20398;-63
2021/12/19 11:40:36;;;;;;;;;;;22.30;45.40;;;;;;4962319;28;19962;-63
2021/12/19 11:43:05;;;;;;;;;;;22.20;45.30;;;;;;4946005;28;19914;-63
2021/12/19 11:48:05;;;;;;;;;;;22.30;45.30;;;;;;4973812;28;20292;-63
2021/12/19 11:50:35;;;;;;;;;;;22.30;45.20;;;;;;4980884;28;20017;-63
2021/12/19 11:53:03;;;;;;;;;;;22.30;45.10;;;;;;4978566;28;19915;-63
2021/12/19 11:55:30;;;;;;;;;;;22.40;45.20;;;;;;4945397;28;20474;-63
2021/12/19 11:58:08;;;;;;;;;;;22.40;45.20;;;;;;4974558;28;19921;-63
2021/12/19 12:00:34;;;;;;;;;;;22.40;45.10;;;;;;4959958;28;20390;-63
2021/12/19 12:03:09;;;;;;;;;;;22.40;45.10;;;;;;4977432;28;19965;-63
2021/12/19 12:05:34;;;;;;;;;;;22.40;45.10;;;;;;4947288;28;19977;-63
2021/12/19 12:08:10;;;;;;;;;;;22.40;45.00;;;;;;4945880;28;19961;-63
2021/12/19 12:10:48;;;;;;;;;;;22.40;45.00;;;;;;4945682;28;19914;-63
2021/12/19 12:13:25;;;;;;;;;;;22.40;44.90;;;;;;4945311;28;19949;-63
2021/12/19 12:15:53;;;;;;;;;;;22.40;44.90;;;;;;4946407;28;19922;-63
2021/12/19 12:18:28;;;;;;;;;;;22.50;44.90;;;;;;4958677;28;20009;-63
2021/12/19 12:20:53;;;;;;;;;;;22.40;44.80;;;;;;4945446;28;19915;-63
2021/12/19 12:23:19;;;;;;;;;;;22.50;44.90;;;;;;4945703;28;19923;-63
2021/12/19 12:25:44;;;;;;;;;;;22.50;44.90;;;;;;4978488;28;19985;-63
2021/12/19 12:28:10;;;;;;;;;;;22.50;45.00;;;;;;4947194;28;19970;-63
2021/12/19 12:30:37;;;;;;;;;;;22.50;44.90;;;;;;4974699;28;19914;-63
2021/12/19 12:33:03;;;;;;;;;;;22.50;44.80;;;;;;4945830;28;19914;-63
2021/12/19 12:35:31;;;;;;;;;;;22.50;44.80;;;;;;4974655;28;20021;-63
2021/12/19 12:37:57;;;;;;;;;;;22.50;44.80;;;;;;4944107;28;19914;-63
2021/12/19 12:42:59;;;;;;;;;;;22.50;44.70;;;;;;4947550;28;20648;-63
2021/12/19 12:45:24;;;;;;;;;;;22.50;44.70;;;;;;4975030;28;19922;-63
2021/12/19 12:47:50;;;;;;;;;;;22.60;44.80;;;;;;4944349;28;20411;-63
2021/12/19 12:50:15;;;;;;;;;;;22.60;44.70;;;;;;4945907;28;19989;-63
2021/12/19 12:52:41;;;;;;;;;;;22.60;44.60;;;;;;4944617;28;19922;-63
2021/12/19 12:55:06;;;;;;;;;;;22.60;44.60;;;;;;4946157;28;19919;-63
2021/12/19 12:57:35;;;;;;;;;;;22.60;44.70;;;;;;4947057;28;19921;-63
2021/12/19 13:00:00;;;;;;;;;;;22.60;44.60;;;;;;4943480;28;20298;-63
2021/12/19 13:02:31;;;;;;;;;;;22.60;44.60;;;;;;4943508;28;19914;-63
2021/12/19 13:05:00;;;;;;;;;;;22.60;44.60;;;;;;4974054;28;20042;-64
2021/12/19 13:07:25;;;;;;;;;;;22.60;44.60;;;;;;4946535;28;20026;-64
2021/12/19 13:09:51;;;;;;;;;;;22.60;44.60;;;;;;4944323;28;20001;-62
2021/12/19 13:12:18;;;;;;;;;;;22.60;44.50;;;;;;4946169;28;19914;-63
2021/12/19 13:14:44;;;;;;;;;;;22.70;44.60;;;;;;4976412;28;19915;-62
2021/12/19 13:17:10;;;;;;;;;;;22.70;44.60;;;;;;4945768;28;19956;-62
2021/12/19 13:19:36;;;;;;;;;;;22.70;44.60;;;;;;4948933;28;19918;-62
2021/12/19 13:22:02;;;;;;;;;;;22.70;44.50;;;;;;4975303;28;19970;-63
2021/12/19 13:24:30;;;;;;;;;;;22.70;44.50;;;;;;4945180;28;19919;-63
2021/12/19 13:27:09;;;;;;;;;;;22.70;44.50;;;;;;4975837;28;20370;-63
2021/12/19 13:29:34;;;;;;;;;;;22.70;44.50;;;;;;4944186;28;19918;-63
2021/12/19 13:32:15;;;;;;;;;;;22.70;44.50;;;;;;4958743;28;19914;-63
2021/12/19 13:34:41;;;;;;;;;;;22.70;44.60;;;;;;4943348;28;19915;-63
2021/12/19 13:37:06;;;;;;;;;;;22.70;44.70;;;;;;4974340;28;20371;-62
2021/12/19 13:39:32;;;;;;;;;;;22.70;44.80;;;;;;4944378;28;19922;-63
2021/12/19 13:42:10;;;;;;;;;;;22.70;44.90;;;;;;4943910;28;19914;-63
2021/12/19 13:44:36;;;;;;;;;;;22.70;45.10;;;;;;4944976;28;19918;-63
2021/12/19 13:47:10;;;;;;;;;;;22.70;45.10;;;;;;4975399;28;20398;-63
2021/12/19 13:49:36;;;;;;;;;;;22.70;45.20;;;;;;4945389;28;20295;-63
2021/12/19 13:52:03;;;;;;;;;;;22.70;45.30;;;;;;4941305;28;19922;-63
2021/12/19 13:54:31;;;;;;;;;;;22.80;45.40;;;;;;4944158;28;19914;-62
2021/12/19 13:56:57;;;;;;;;;;;22.70;45.30;;;;;;4944212;28;19915;-62
2021/12/19 13:59:24;;;;;;;;;;;22.80;45.40;;;;;;4946045;28;19946;-62
2021/12/19 14:01:49;;;;;;;;;;;22.70;45.30;;;;;;4944570;28;19930;-63
2021/12/19 14:04:15;;;;;;;;;;;22.80;45.40;;;;;;4975613;28;19926;-62
2021/12/19 14:06:41;;;;;;;;;;;22.80;45.40;;;;;;4943466;28;20069;-63
2021/12/19 14:09:10;;;;;;;;;;;22.80;45.40;;;;;;4942519;28;20009;-63
2021/12/19 14:11:36;;;;;;;;;;;22.80;45.40;;;;;;4972926;28;19915;-62
2021/12/19 14:14:06;;;;;;;;;;;22.80;45.40;;;;;;4946764;28;20370;-63
2021/12/19 14:16:42;;;;;;;;;;;22.80;45.30;;;;;;4981085;28;20094;-63
2021/12/19 14:19:37;;;;;;;;;;;22.80;45.30;;;;;;4942432;28;19915;-63
2021/12/19 14:22:04;;;;;;;;;;;22.80;45.30;;;;;;4930964;28;19915;-62
2021/12/19 14:24:48;;;;;;;;;;;22.80;45.30;;;;;;4945778;28;19957;-63
2021/12/19 14:27:27;;;;;;;;;;;22.80;45.30;;;;;;4942637;28;20392;-63
2021/12/19 14:29:55;;;;;;;;;;;22.80;45.30;;;;;;4945796;28;19919;-63
2021/12/19 14:32:38;;;;;;;;;;;22.80;45.20;;;;;;4943818;28;19915;-62
2021/12/19 14:35:12;;;;;;;;;;;22.90;45.30;;;;;;4972900;28;20379;-62
2021/12/19 14:37:40;;;;;;;;;;;22.90;45.30;;;;;;4945656;28;19993;-63
2021/12/19 14:40:12;;;;;;;;;;;22.90;45.20;;;;;;4944593;28;20287;-62
2021/12/19 14:42:39;;;;;;;;;;;22.90;45.20;;;;;;4946435;28;20390;-62
2021/12/19 14:45:06;;;;;;;;;;;22.80;45.10;;;;;;4944620;28;19937;-62
2021/12/19 14:47:42;;;;;;;;;;;22.90;45.20;;;;;;4978669;28;20521;-62
2021/12/19 14:50:09;;;;;;;;;;;22.90;45.20;;;;;;4945140;28;19937;-63
2021/12/19 14:52:34;;;;;;;;;;;22.90;45.10;;;;;;4948899;28;20005;-62
2021/12/19 14:55:12;;;;;;;;;;;22.90;45.10;;;;;;4947334;28;19914;-62
2021/12/19 14:57:38;;;;;;;;;;;22.90;45.10;;;;;;4947136;28;19962;-63
2021/12/19 15:00:04;;;;;;;;;;;22.90;45.10;;;;;;4946398;28;20025;-63
2021/12/19 15:02:30;;;;;;;;;;;22.90;45.10;;;;;;4949598;28;19923;-62
2021/12/19 15:04:55;;;;;;;;;;;22.90;45.00;;;;;;4947371;28;19927;-62
2021/12/19 15:07:24;;;;;;;;;;;22.90;45.00;;;;;;4948436;28;20202;-62
2021/12/19 15:09:50;;;;;;;;;;;22.90;45.00;;;;;;4946731;28;20401;-62
2021/12/19 15:12:15;;;;;;;;;;;22.90;45.00;;;;;;4946067;28;19922;-63
2021/12/19 15:14:41;;;;;;;;;;;22.90;45.00;;;;;;4945907;28;20367;-62
2021/12/19 15:17:07;;;;;;;;;;;23.00;45.10;;;;;;4948055;28;20395;-62
2021/12/19 15:19:33;;;;;;;;;;;22.90;44.90;;;;;;4946625;28;19915;-62
2021/12/19 15:21:58;;;;;;;;;;;23.00;45.60;;;;;;4946635;28;20343;-62
2021/12/19 15:24:24;;;;;;;;;;;23.00;45.00;;;;;;4976600;28;19918;-63
2021/12/19 15:26:49;;;;;;;;;;;23.00;45.00;;;;;;4943882;28;20564;-63